Time;durP1;ratioP1;P1;durP2;ratioP2;P2;SDS_P1;SDS_P2;PMS_P1;PMS_P2;Temp;Humidity;BMP_temperature;BMP_pressure;BME280_temperature;BME280_humidity;BME280_pressure;Samples;Min_cycle;Max_cycle;Signal;HPM_P1;HPM_P2
2022/06/26 00:01:22;;;;;;;9.07;6.35;;;20.00;99.90;;;;;;5134940;27;20200;-52
2022/06/26 00:03:48;;;;;;;7.28;6.55;;;20.00;99.90;;;;;;5134989;27;20168;-52
2022/06/26 00:06:14;;;;;;;7.90;7.10;;;20.10;99.90;;;;;;5135077;27;20171;-52
2022/06/26 00:08:39;;;;;;;8.00;7.10;;;20.10;99.90;;;;;;5134848;27;20620;-52
2022/06/26 00:11:05;;;;;;;8.40;7.60;;;20.20;99.90;;;;;;5134995;27;20168;-52
2022/06/26 00:13:31;;;;;;;11.43;7.30;;;20.20;99.90;;;;;;5134990;27;20660;-52
2022/06/26 00:15:56;;;;;;;7.93;7.20;;;20.00;99.90;;;;;;5134887;27;20160;-52
2022/06/26 00:18:22;;;;;;;9.30;6.90;;;20.10;99.90;;;;;;5134782;27;20179;-52
2022/06/26 00:20:48;;;;;;;8.82;6.20;;;20.10;99.90;;;;;;5135055;27;20540;-53
2022/06/26 00:23:13;;;;;;;7.90;7.10;;;20.10;99.90;;;;;;5134720;27;20168;-52
2022/06/26 00:25:39;;;;;;;7.78;6.63;;;20.00;99.90;;;;;;5134624;27;20182;-52
2022/06/26 00:28:05;;;;;;;9.45;6.75;;;20.10;99.90;;;;;;5134639;27;20160;-52
2022/06/26 00:30:30;;;;;;;10.77;7.60;;;20.00;99.90;;;;;;5134852;27;20647;-52
2022/06/26 00:32:56;;;;;;;9.30;7.68;;;19.80;99.90;;;;;;5134538;27;20559;-52
2022/06/26 00:35:22;;;;;;;7.95;7.15;;;19.60;99.90;;;;;;5134335;27;20175;-52
2022/06/26 00:37:48;;;;;;;8.68;7.78;;;19.60;99.90;;;;;;5134788;27;20648;-52
2022/06/26 00:40:14;;;;;;;8.55;7.65;;;19.40;99.90;;;;;;5134543;27;20254;-52
2022/06/26 00:42:40;;;;;;;11.57;8.55;;;19.40;99.90;;;;;;5134399;27;20164;-52
2022/06/26 00:45:06;;;;;;;9.38;7.70;;;19.40;99.90;;;;;;5134350;27;20175;-52
2022/06/26 00:47:32;;;;;;;8.95;7.80;;;19.50;99.90;;;;;;5115907;27;20191;-52
2022/06/26 00:49:58;;;;;;;10.07;8.38;;;19.50;99.90;;;;;;5134196;27;20198;-52
2022/06/26 00:52:24;;;;;;;8.88;7.75;;;19.50;99.90;;;;;;5134347;27;20167;-52
2022/06/26 00:54:50;;;;;;;8.48;7.68;;;19.50;99.90;;;;;;5134416;27;20688;-52
2022/06/26 00:57:16;;;;;;;8.75;7.93;;;19.60;99.90;;;;;;5115896;27;20266;-52
2022/06/26 00:59:42;;;;;;;10.10;7.93;;;19.60;99.90;;;;;;5134173;27;20558;-52
2022/06/26 01:02:08;;;;;;;10.07;7.65;;;19.50;99.90;;;;;;5133904;27;20160;-52
2022/06/26 01:04:34;;;;;;;9.73;8.10;;;19.60;99.90;;;;;;5133834;27;20187;-52
2022/06/26 01:07:00;;;;;;;12.18;7.78;;;19.50;99.90;;;;;;5133802;27;20164;-52
2022/06/26 01:09:26;;;;;;;13.63;8.32;;;19.60;99.90;;;;;;5133633;27;20204;-52
2022/06/26 01:11:53;;;;;;;8.57;7.63;;;19.50;99.90;;;;;;5133716;27;20190;-52
2022/06/26 01:14:19;;;;;;;12.55;8.80;;;19.50;99.90;;;;;;5134151;27;20163;-52
2022/06/26 01:16:45;;;;;;;10.20;8.27;;;19.40;99.90;;;;;;5133645;27;20172;-52
2022/06/26 01:19:15;;;;;;;9.50;8.52;;;19.30;99.90;;;;;;5133550;27;20156;-52
2022/06/26 01:21:41;;;;;;;11.63;9.00;;;19.20;99.90;;;;;;5133547;27;20172;-52
2022/06/26 01:24:07;;;;;;;14.07;8.23;;;19.20;99.90;;;;;;5133552;27;20163;-52
2022/06/26 01:26:33;;;;;;;12.85;8.35;;;19.10;99.90;;;;;;5133478;27;20179;-52
2022/06/26 01:28:59;;;;;;;8.38;7.57;;;19.00;99.90;;;;;;5133778;27;20565;-52
2022/06/26 01:31:25;;;;;;;13.07;8.82;;;18.90;99.90;;;;;;5133434;27;20160;-51
2022/06/26 01:33:50;;;;;;;13.77;8.80;;;18.80;99.90;;;;;;5133307;27;20624;-52
2022/06/26 01:36:16;;;;;;;12.45;9.27;;;18.70;99.90;;;;;;5133689;27;20172;-52
2022/06/26 01:38:42;;;;;;;9.48;8.20;;;18.70;99.90;;;;;;5133290;27;20156;-51
2022/06/26 01:41:08;;;;;;;11.77;9.00;;;18.60;99.90;;;;;;5133173;27;20235;-53
2022/06/26 01:43:35;;;;;;;13.05;8.70;;;18.60;99.90;;;;;;5133306;27;20199;-52
2022/06/26 01:46:02;;;;;;;12.32;9.25;;;18.50;99.90;;;;;;5132593;27;20658;-52
2022/06/26 01:48:29;;;;;;;13.57;9.13;;;18.60;99.90;;;;;;5133237;27;20160;-52
2022/06/26 01:50:56;;;;;;;12.02;8.95;;;18.50;99.90;;;;;;5133594;27;20168;-52
2022/06/26 01:53:22;;;;;;;11.60;9.18;;;18.50;99.90;;;;;;5133113;27;20260;-52
2022/06/26 01:55:48;;;;;;;12.18;9.55;;;18.30;99.90;;;;;;5133376;27;20628;-52
2022/06/26 01:58:14;;;;;;;12.88;10.35;;;18.50;99.90;;;;;;5133212;27;20205;-52
2022/06/26 02:00:42;;;;;;;10.32;9.32;;;18.70;99.90;;;;;;5132903;27;20336;-52
2022/06/26 02:03:08;;;;;;;17.92;12.60;;;18.70;99.90;;;;;;5133092;27;20168;-52
2022/06/26 02:05:34;;;;;;;18.35;13.05;;;18.70;99.90;;;;;;5132931;27;20625;-52
2022/06/26 02:08:00;;;;;;;16.38;11.52;;;18.80;99.90;;;;;;5132969;27;20167;-52
2022/06/26 02:15:57;;;;;;;16.52;11.50;;;18.90;99.90;;;;;;5133031;28;20288;-52
2022/06/26 02:18:23;;;;;;;12.25;10.63;;;19.00;99.90;;;;;;5132832;28;20317;-52
2022/06/26 02:20:49;;;;;;;12.23;10.98;;;19.00;99.90;;;;;;5133040;28;20206;-52
2022/06/26 02:23:15;;;;;;;12.60;10.52;;;18.90;99.90;;;;;;5132816;28;20160;-53
2022/06/26 02:25:42;;;;;;;14.43;11.15;;;19.00;99.90;;;;;;5132771;28;20571;-52
2022/06/26 02:28:08;;;;;;;12.32;10.15;;;19.00;99.90;;;;;;5132665;28;20168;-53
2022/06/26 02:30:33;;;;;;;13.13;10.15;;;19.00;99.90;;;;;;5132718;28;20160;-52
2022/06/26 02:32:59;;;;;;;14.10;9.85;;;18.90;99.90;;;;;;5132709;28;20247;-52
2022/06/26 02:35:26;;;;;;;11.43;9.85;;;19.00;99.90;;;;;;5132592;28;20510;-52
2022/06/26 02:37:52;;;;;;;13.10;10.40;;;19.00;99.90;;;;;;5132591;28;20255;-52
2022/06/26 02:40:21;;;;;;;11.18;10.05;;;19.00;99.90;;;;;;5132813;28;20187;-51
2022/06/26 02:42:47;;;;;;;12.95;9.73;;;18.90;99.90;;;;;;5132919;28;20160;-53
2022/06/26 02:45:13;;;;;;;12.38;10.00;;;18.90;99.90;;;;;;5132622;28;20216;-52
2022/06/26 02:47:38;;;;;;;10.65;9.57;;;18.90;99.90;;;;;;5132517;28;20636;-52
2022/06/26 02:50:05;;;;;;;12.52;10.50;;;18.90;99.90;;;;;;5132526;28;20156;-52
2022/06/26 02:52:32;;;;;;;10.57;9.60;;;18.90;99.90;;;;;;5132522;28;20172;-52
2022/06/26 02:54:57;;;;;;;10.48;9.40;;;19.00;99.90;;;;;;5132711;28;20255;-52
2022/06/26 02:57:23;;;;;;;13.13;10.30;;;19.00;99.90;;;;;;5132447;27;20192;-52
2022/06/26 02:59:48;;;;;;;11.30;10.15;;;19.10;99.90;;;;;;5136105;27;20204;-52
2022/06/26 03:02:14;;;;;;;15.80;10.23;;;19.00;99.90;;;;;;5136340;27;20531;-52
2022/06/26 03:04:40;;;;;;;12.98;8.57;;;19.00;99.90;;;;;;5136433;27;20171;-52
2022/06/26 03:07:06;;;;;;;7.97;6.13;;;18.90;99.90;;;;;;5136196;27;20164;-52
2022/06/26 03:09:31;;;;;;;12.25;5.60;;;18.70;99.90;;;;;;5136009;27;20220;-52
2022/06/26 03:11:57;;;;;;;11.00;4.85;;;18.60;99.90;;;;;;5136351;27;20171;-52
2022/06/26 03:14:23;;;;;;;12.13;4.57;;;18.60;99.90;;;;;;5136002;27;20164;-52
2022/06/26 03:16:48;;;;;;;11.07;4.97;;;18.60;99.90;;;;;;5136427;27;20156;-52
2022/06/26 03:19:14;;;;;;;7.75;4.05;;;18.60;99.90;;;;;;5135912;27;20168;-52
2022/06/26 03:21:40;;;;;;;6.07;4.00;;;18.50;99.90;;;;;;5136095;27;20220;-52
2022/06/26 03:24:05;;;;;;;11.07;4.15;;;18.50;99.90;;;;;;5117405;27;20168;-52
2022/06/26 03:26:33;;;;;;;9.10;4.43;;;18.50;99.90;;;;;;5135821;27;20195;-52
2022/06/26 03:29:00;;;;;;;9.30;3.88;;;18.50;99.90;;;;;;5135784;27;20168;-52
2022/06/26 03:31:26;;;;;;;5.28;3.25;;;18.50;99.90;;;;;;5135758;27;20196;-52
2022/06/26 03:33:53;;;;;;;5.60;3.35;;;18.40;99.90;;;;;;5135644;27;20156;-52
2022/06/26 03:36:18;;;;;;;10.35;3.72;;;18.40;99.90;;;;;;5136058;27;20534;-52
2022/06/26 03:38:44;;;;;;;6.05;3.05;;;18.50;99.90;;;;;;5135595;27;20171;-51
2022/06/26 03:41:11;;;;;;;5.88;3.65;;;18.50;99.90;;;;;;5135550;27;20204;-52
2022/06/26 03:43:36;;;;;;;4.82;3.10;;;18.40;99.90;;;;;;5135678;27;20152;-52
2022/06/26 03:46:03;;;;;;;5.72;2.72;;;18.40;99.90;;;;;;5135447;27;20174;-52
2022/06/26 03:48:29;;;;;;;5.50;3.22;;;18.40;99.90;;;;;;5135788;27;20172;-52
2022/06/26 03:50:55;;;;;;;11.50;3.85;;;18.30;99.90;;;;;;5135566;27;20218;-52
2022/06/26 03:53:20;;;;;;;10.10;2.92;;;18.40;99.90;;;;;;5135347;27;20168;-52
2022/06/26 03:55:46;;;;;;;7.68;3.00;;;18.30;99.90;;;;;;5117175;27;20211;-52
2022/06/26 03:58:11;;;;;;;7.38;3.33;;;18.30;99.90;;;;;;5135233;27;20193;-52
2022/06/26 04:00:37;;;;;;;9.30;2.95;;;18.30;99.90;;;;;;5135090;27;20291;-52
2022/06/26 04:03:04;;;;;;;7.82;2.83;;;18.30;99.90;;;;;;5135391;27;20196;-52
2022/06/26 04:05:31;;;;;;;6.75;2.85;;;18.40;99.90;;;;;;5135074;27;20164;-52
2022/06/26 04:07:57;;;;;;;6.78;3.22;;;18.40;99.90;;;;;;5135008;27;20546;-52
2022/06/26 04:10:23;;;;;;;8.88;3.17;;;18.40;99.90;;;;;;5134410;27;20283;-52
2022/06/26 04:12:48;;;;;;;4.47;3.25;;;18.40;99.90;;;;;;5135245;27;20285;-52
2022/06/26 04:15:14;;;;;;;5.63;3.15;;;18.50;99.90;;;;;;5116502;27;20191;-52
2022/06/26 04:17:40;;;;;;;6.80;3.08;;;18.60;99.90;;;;;;5134848;27;20572;-52
2022/06/26 04:20:06;;;;;;;9.32;3.00;;;18.60;99.90;;;;;;5134723;27;20227;-52
2022/06/26 04:22:32;;;;;;;5.25;3.35;;;18.60;99.90;;;;;;5134732;27;20172;-52
2022/06/26 04:24:57;;;;;;;9.55;3.28;;;18.70;99.90;;;;;;5134762;27;20160;-52
2022/06/26 04:27:23;;;;;;;7.35;3.03;;;18.70;99.90;;;;;;5134716;27;20168;-52
2022/06/26 04:29:49;;;;;;;6.47;3.20;;;18.70;99.90;;;;;;5134974;27;20191;-52
2022/06/26 04:32:14;;;;;;;8.30;3.63;;;18.60;99.90;;;;;;5134510;27;20168;-52
2022/06/26 04:34:40;;;;;;;9.60;3.25;;;18.60;99.90;;;;;;5134448;27;20160;-52
2022/06/26 04:37:05;;;;;;;5.70;3.28;;;18.70;99.90;;;;;;5134449;27;20171;-52
2022/06/26 04:39:31;;;;;;;3.63;2.75;;;18.90;99.90;;;;;;5134317;27;20621;-52
2022/06/26 04:41:57;;;;;;;10.65;2.85;;;18.90;99.90;;;;;;5134417;27;20168;-52
2022/06/26 04:44:22;;;;;;;13.05;3.50;;;18.90;99.90;;;;;;5134308;27;20163;-52
2022/06/26 04:46:48;;;;;;;7.50;2.90;;;19.00;99.90;;;;;;5134493;27;20164;-52
2022/06/26 04:49:14;;;;;;;7.88;3.17;;;18.90;99.90;;;;;;5134217;27;20247;-52
2022/06/26 04:51:40;;;;;;;7.90;2.90;;;18.80;99.90;;;;;;5134178;27;20210;-52
2022/06/26 04:54:08;;;;;;;8.43;2.75;;;18.80;99.90;;;;;;5134422;27;20179;-53
2022/06/26 04:56:34;;;;;;;10.07;3.08;;;18.90;99.90;;;;;;5134107;27;20216;-52
2022/06/26 04:59:00;;;;;;;5.63;2.85;;;18.90;99.90;;;;;;5133978;27;20160;-52
2022/06/26 05:01:26;;;;;;;10.45;3.42;;;19.00;99.90;;;;;;5133998;27;20211;-53
2022/06/26 05:03:52;;;;;;;5.63;2.80;;;18.90;99.90;;;;;;5133903;27;20168;-52
2022/06/26 05:06:18;;;;;;;5.70;3.53;;;18.90;99.90;;;;;;5134174;27;20186;-52
2022/06/26 05:08:44;;;;;;;5.13;2.83;;;19.00;99.90;;;;;;5133699;27;20292;-52
2022/06/26 05:11:10;;;;;;;7.57;2.85;;;19.00;99.90;;;;;;5133769;27;20593;-52
2022/06/26 05:13:36;;;;;;;8.60;3.17;;;18.90;99.90;;;;;;5133832;27;20160;-52
2022/06/26 05:16:02;;;;;;;6.60;2.78;;;19.00;99.90;;;;;;5133738;27;20172;-52
2022/06/26 05:18:28;;;;;;;5.45;2.97;;;19.10;99.90;;;;;;5133715;27;20170;-52
2022/06/26 05:20:54;;;;;;;6.20;2.35;;;19.40;99.90;;;;;;5132852;27;20279;-52
2022/06/26 05:23:20;;;;;;;4.22;2.40;;;19.50;99.90;;;;;;5134023;27;20547;-52
2022/06/26 05:25:46;;;;;;;3.80;2.28;;;19.50;99.90;;;;;;5133870;27;20168;-52
2022/06/26 05:28:11;;;;;;;7.05;2.20;;;19.50;99.90;;;;;;5133531;27;20520;-52
2022/06/26 05:30:37;;;;;;;7.43;2.22;;;19.30;99.90;;;;;;5133419;27;20171;-52
2022/06/26 05:33:03;;;;;;;5.50;2.40;;;19.30;99.90;;;;;;5133457;27;20175;-52
2022/06/26 05:35:29;;;;;;;4.70;2.30;;;19.40;99.90;;;;;;5133382;27;20172;-52
2022/06/26 05:37:55;;;;;;;2.35;1.90;;;19.50;99.90;;;;;;5133469;27;20534;-52
2022/06/26 05:40:21;;;;;;;4.00;2.45;;;19.30;99.90;;;;;;5133165;27;20198;-52
2022/06/26 05:42:47;;;;;;;6.38;2.30;;;19.20;99.90;;;;;;5133870;27;20515;-52
2022/06/26 05:45:12;;;;;;;2.97;1.77;;;19.20;99.90;;;;;;5133180;27;20720;-52
2022/06/26 05:47:38;;;;;;;8.95;2.72;;;19.10;99.90;;;;;;5133165;27;20163;-52
2022/06/26 05:50:05;;;;;;;8.13;2.10;;;19.00;99.90;;;;;;5132919;27;20167;-52
2022/06/26 05:52:30;;;;;;;5.07;1.95;;;19.00;99.90;;;;;;5133057;27;20179;-51
2022/06/26 05:54:56;;;;;;;5.88;2.60;;;19.00;99.90;;;;;;5132757;27;20676;-51
2022/06/26 05:57:22;;;;;;;6.05;2.10;;;19.10;99.90;;;;;;5133098;27;20232;-51
2022/06/26 05:59:47;;;;;;;4.63;2.25;;;18.90;99.90;;;;;;5133514;27;20204;-52
2022/06/26 06:02:13;;;;;;;3.17;2.55;;;18.80;99.90;;;;;;5133055;27;20172;-52
2022/06/26 06:04:39;;;;;;;4.45;2.30;;;18.80;99.90;;;;;;5132891;27;20164;-51
2022/06/26 06:07:05;;;;;;;3.78;2.50;;;18.90;99.90;;;;;;5132942;27;20164;-51
2022/06/26 06:09:31;;;;;;;6.65;2.83;;;19.00;99.90;;;;;;5132798;27;20703;-52
2022/06/26 06:11:57;;;;;;;3.15;2.03;;;19.10;99.90;;;;;;5132782;27;20168;-51
2022/06/26 06:14:23;;;;;;;4.95;2.13;;;19.40;99.90;;;;;;5132737;28;20167;-51
2022/06/26 06:16:49;;;;;;;3.83;2.25;;;19.40;99.90;;;;;;5133099;28;20241;-51
2022/06/26 06:19:14;;;;;;;6.45;2.72;;;19.40;99.90;;;;;;5132725;28;20160;-51
2022/06/26 06:21:40;;;;;;;4.53;2.38;;;19.50;99.90;;;;;;5132471;28;20204;-51
2022/06/26 06:24:06;;;;;;;3.20;1.95;;;19.50;99.90;;;;;;5132952;28;20650;-51
2022/06/26 06:26:31;;;;;;;3.10;2.33;;;19.60;99.90;;;;;;5132514;28;20164;-51
2022/06/26 06:28:57;;;;;;;5.28;2.22;;;19.60;99.90;;;;;;5132692;28;20167;-51
2022/06/26 06:31:22;;;;;;;4.15;2.42;;;19.70;99.90;;;;;;5132685;28;20156;-51
2022/06/26 06:33:48;;;;;;;3.72;2.38;;;19.80;99.90;;;;;;5136680;27;20176;-51
2022/06/26 06:36:14;;;;;;;4.97;2.40;;;19.90;99.90;;;;;;5136837;27;20168;-51
2022/06/26 06:38:39;;;;;;;3.83;2.25;;;20.00;99.90;;;;;;5137064;27;20660;-51
2022/06/26 06:41:05;;;;;;;3.03;2.00;;;20.30;99.90;;;;;;5136576;27;20567;-51
2022/06/26 06:43:30;;;;;;;3.92;2.30;;;20.20;99.90;;;;;;5136322;27;20160;-51
2022/06/26 06:45:56;;;;;;;3.65;2.20;;;20.30;99.90;;;;;;5136444;27;20164;-51
2022/06/26 06:48:24;;;;;;;3.15;2.55;;;20.50;99.90;;;;;;5136539;27;20168;-51
2022/06/26 06:50:51;;;;;;;5.45;2.47;;;20.60;99.90;;;;;;5136540;27;20293;-51
2022/06/26 06:53:18;;;;;;;4.25;1.92;;;20.50;99.90;;;;;;5136992;27;20168;-51
2022/06/26 06:55:43;;;;;;;4.03;2.47;;;20.40;99.90;;;;;;5136373;27;20636;-51
2022/06/26 06:58:09;;;;;;;3.17;2.45;;;20.80;99.90;;;;;;5136394;27;20179;-51
2022/06/26 07:00:35;;;;;;;4.40;2.28;;;20.90;99.90;;;;;;5136120;27;20227;-51
2022/06/26 07:03:02;;;;;;;6.45;2.45;;;21.10;99.90;;;;;;5136195;27;20164;-51
2022/06/26 07:05:28;;;;;;;3.45;2.40;;;21.20;99.90;;;;;;5136166;27;20194;-51
2022/06/26 07:07:53;;;;;;;6.20;2.17;;;21.30;99.90;;;;;;5136098;27;20168;-51
2022/06/26 07:10:19;;;;;;;2.17;1.98;;;21.10;99.90;;;;;;5136142;27;20212;-51
2022/06/26 07:12:55;;;;;;;3.33;1.95;;;21.10;99.90;;;;;;5135930;27;20531;-51
2022/06/26 07:15:21;;;;;;;5.20;2.25;;;21.40;99.90;;;;;;5136338;27;20259;-51
2022/06/26 07:17:48;;;;;;;2.17;1.80;;;21.30;99.90;;;;;;5136304;27;20667;-51
2022/06/26 07:20:13;;;;;;;1.70;1.52;;;21.70;99.90;;;;;;5135895;27;20235;-51
2022/06/26 07:22:39;;;;;;;2.72;1.40;;;21.60;99.90;;;;;;5135943;27;20199;-51
2022/06/26 07:25:05;;;;;;;4.20;1.70;;;21.70;99.90;;;;;;5135915;27;20172;-51
2022/06/26 07:27:31;;;;;;;2.28;1.58;;;22.10;99.90;;;;;;5135903;27;20168;-51
2022/06/26 07:29:56;;;;;;;3.10;1.70;;;22.50;99.90;;;;;;5135911;27;20175;-51
2022/06/26 07:32:22;;;;;;;2.95;1.83;;;22.80;99.90;;;;;;5135769;27;20160;-51
2022/06/26 07:34:48;;;;;;;3.72;2.00;;;22.80;99.90;;;;;;5136215;27;20167;-51
2022/06/26 07:37:13;;;;;;;2.90;1.70;;;22.70;99.90;;;;;;5135665;27;20641;-51
2022/06/26 07:39:39;;;;;;;2.78;1.80;;;22.70;99.90;;;;;;5135432;27;20530;-51
2022/06/26 07:42:05;;;;;;;5.05;1.50;;;22.70;99.90;;;;;;5135504;27;20701;-51
2022/06/26 07:44:31;;;;;;;2.45;1.50;;;22.40;99.90;;;;;;5134665;27;20364;-51
2022/06/26 07:46:57;;;;;;;3.15;1.42;;;22.10;99.90;;;;;;5135492;27;20528;-51
2022/06/26 07:49:23;;;;;;;2.35;1.15;;;22.00;99.90;;;;;;5135637;27;20616;-51
2022/06/26 07:51:49;;;;;;;5.15;1.48;;;22.10;99.90;;;;;;5135664;27;20160;-51
2022/06/26 07:54:15;;;;;;;3.13;1.40;;;21.60;99.90;;;;;;5135921;27;20193;-51
2022/06/26 07:56:41;;;;;;;1.23;1.17;;;21.90;99.90;;;;;;5135239;27;20250;-51
2022/06/26 07:59:07;;;;;;;3.08;1.30;;;22.20;99.90;;;;;;5135517;27;20176;-52
2022/06/26 08:01:33;;;;;;;1.90;1.35;;;22.20;99.90;;;;;;5135136;27;20204;-53
2022/06/26 08:03:59;;;;;;;2.65;1.55;;;22.20;99.90;;;;;;5135361;27;20263;-55
2022/06/26 08:06:26;;;;;;;2.10;1.38;;;21.90;99.90;;;;;;5135106;27;20554;-56
2022/06/26 08:08:51;;;;;;;4.95;1.90;;;22.10;99.90;;;;;;5134887;27;20525;-54
2022/06/26 08:11:17;;;;;;;2.17;1.55;;;22.20;99.90;;;;;;5135256;27;20170;-55
2022/06/26 08:13:43;;;;;;;3.10;1.60;;;22.30;99.90;;;;;;5134956;27;20195;-55
2022/06/26 08:16:09;;;;;;;3.45;1.50;;;22.80;99.90;;;;;;5135104;27;20171;-55
2022/06/26 08:18:34;;;;;;;3.53;1.60;;;22.70;99.90;;;;;;5135137;27;20172;-54
2022/06/26 08:22:00;;;;;;;2.78;1.65;;;22.70;99.90;;;;;;5134702;27;20526;-54
2022/06/26 08:23:49;;;;;;;1.77;1.50;;;22.50;99.90;;;;;;5134712;27;20179;-55
2022/06/26 08:26:14;;;;;;;3.50;1.85;;;22.70;99.90;;;;;;5134908;27;20212;-54
2022/06/26 08:28:40;;;;;;;1.50;1.40;;;22.40;99.90;;;;;;5134569;27;20641;-54
2022/06/26 08:31:06;;;;;;;2.00;1.63;;;22.30;99.90;;;;;;5134594;27;20247;-53
2022/06/26 08:33:31;;;;;;;2.47;1.50;;;22.30;99.90;;;;;;5134825;27;20170;-55
2022/06/26 08:35:57;;;;;;;2.03;1.75;;;22.10;99.90;;;;;;5134486;27;20168;-49
2022/06/26 08:38:23;;;;;;;2.38;1.65;;;22.10;99.90;;;;;;5134431;27;20251;-52
2022/06/26 08:40:49;;;;;;;2.92;1.60;;;22.40;99.90;;;;;;5134492;27;20199;-51
2022/06/26 08:43:19;;;;;;;2.47;1.83;;;22.60;99.90;;;;;;5133963;27;20160;-51
2022/06/26 08:45:45;;;;;;;3.13;1.70;;;22.70;99.90;;;;;;5133681;27;20558;-49
2022/06/26 08:48:14;;;;;;;2.20;1.60;;;23.20;99.90;;;;;;5134115;27;20168;-53
2022/06/26 08:50:40;;;;;;;2.50;1.60;;;23.50;99.90;;;;;;5134148;27;20203;-51
2022/06/26 08:53:06;;;;;;;1.90;1.70;;;23.40;99.90;;;;;;5134116;27;20183;-50
2022/06/26 08:55:32;;;;;;;2.95;1.50;;;23.30;99.90;;;;;;5134317;27;20181;-52
2022/06/26 08:57:57;;;;;;;2.75;1.60;;;23.30;99.90;;;;;;5134171;27;20621;-50
2022/06/26 09:00:23;;;;;;;1.80;1.40;;;23.10;99.90;;;;;;5133925;27;20256;-51
2022/06/26 09:02:49;;;;;;;2.65;1.48;;;23.10;99.90;;;;;;5133970;27;20178;-50
2022/06/26 09:05:14;;;;;;;2.80;1.50;;;23.30;99.90;;;;;;5133931;27;20222;-51
2022/06/26 09:07:52;;;;;;;4.63;1.85;;;23.40;99.90;;;;;;5133869;27;20659;-51
2022/06/26 09:10:21;;;;;;;2.92;1.65;;;23.70;99.90;;;;;;5134108;27;20219;-50
2022/06/26 09:12:53;;;;;;;3.42;1.90;;;23.80;99.90;;;;;;5134031;27;20160;-51
2022/06/26 09:15:21;;;;;;;2.28;1.70;;;24.30;99.90;;;;;;5133928;27;20160;-51
2022/06/26 09:18:04;;;;;;;1.95;1.70;;;24.10;99.90;;;;;;5133849;27;20164;-51
2022/06/26 09:20:33;;;;;;;3.25;1.50;;;24.10;99.90;;;;;;5133560;27;20679;-51
2022/06/26 09:23:00;;;;;;;3.03;1.73;;;24.20;99.90;;;;;;5133575;27;20156;-50
2022/06/26 09:25:45;;;;;;;5.78;1.50;;;23.80;99.90;;;;;;5115010;27;20175;-51
2022/06/26 09:28:21;;;;;;;2.25;1.55;;;23.70;99.90;;;;;;5133740;27;20732;-51
2022/06/26 09:30:55;;;;;;;1.95;1.50;;;23.70;99.90;;;;;;5133665;27;20170;-51
2022/06/26 09:33:22;;;;;;;2.47;1.48;;;24.00;99.90;;;;;;5133115;27;20159;-51
2022/06/26 09:35:49;;;;;;;2.28;1.60;;;23.90;99.90;;;;;;5130662;27;20521;-51
2022/06/26 09:38:17;;;;;;;3.78;1.70;;;23.80;99.90;;;;;;5133514;27;20164;-51
2022/06/26 09:40:47;;;;;;;2.85;1.60;;;23.70;99.90;;;;;;5133047;27;20679;-50
2022/06/26 09:43:28;;;;;;;2.80;1.60;;;23.80;99.90;;;;;;5133346;27;20160;-51
2022/06/26 09:45:55;;;;;;;4.22;1.95;;;24.20;99.90;;;;;;5133161;27;20167;-51
2022/06/26 09:48:23;;;;;;;1.90;1.58;;;24.30;99.90;;;;;;5114762;27;20635;-51
2022/06/26 09:50:50;;;;;;;2.10;1.63;;;24.40;99.90;;;;;;5133165;27;20168;-52
2022/06/26 09:53:17;;;;;;;2.00;1.70;;;24.10;99.90;;;;;;5114888;27;20521;-51
2022/06/26 09:55:43;;;;;;;3.00;1.90;;;24.00;99.90;;;;;;5133313;27;20164;-51
2022/06/26 09:58:09;;;;;;;2.17;1.70;;;24.20;99.90;;;;;;5132862;27;20170;-51
2022/06/26 10:00:35;;;;;;;3.28;1.60;;;24.40;99.90;;;;;;5132966;27;20624;-51
2022/06/26 10:08:36;;;;;;;2.97;1.83;;;24.50;99.90;;;;;;5131663;27;20170;-51
2022/06/26 10:11:03;;;;;;;1.77;1.60;;;24.80;99.90;;;;;;5131806;27;20218;-52
2022/06/26 10:13:33;;;;;;;3.20;1.60;;;24.80;99.90;;;;;;5132798;28;20167;-51
2022/06/26 10:16:04;;;;;;;2.78;1.90;;;24.70;99.90;;;;;;5132481;28;20163;-51
2022/06/26 10:19:15;;;;;;;3.58;2.00;;;24.60;99.90;;;;;;5132719;28;20269;-51
2022/06/26 10:21:42;;;;;;;2.10;1.88;;;24.50;99.90;;;;;;5093296;28;20219;-51
2022/06/26 10:24:07;;;;;;;3.78;1.83;;;24.60;99.90;;;;;;5132850;28;20524;-52
2022/06/26 10:26:34;;;;;;;3.80;1.65;;;24.90;99.90;;;;;;5132720;28;20152;-52
2022/06/26 10:29:03;;;;;;;4.68;1.40;;;24.90;99.90;;;;;;5132952;28;20185;-53
2022/06/26 10:31:49;;;;;;;3.58;1.88;;;25.10;99.90;;;;;;5132758;28;20160;-52
2022/06/26 10:34:20;;;;;;;4.00;1.77;;;24.90;99.90;;;;;;5131955;28;20171;-52
2022/06/26 10:37:04;;;;;;;3.38;2.05;;;24.50;99.90;;;;;;5133046;28;20171;-52
2022/06/26 10:39:38;;;;;;;2.75;1.80;;;24.50;99.90;;;;;;5132753;28;20219;-51
2022/06/26 10:45:10;;;;;;;2.80;2.00;;;24.70;99.90;;;;;;5132863;28;20650;-51
2022/06/26 10:47:55;;;;;;;3.33;2.05;;;24.50;99.90;;;;;;5132634;28;20171;-51
2022/06/26 10:50:29;;;;;;;3.72;1.70;;;24.40;99.90;;;;;;5132959;28;20156;-52
2022/06/26 10:53:15;;;;;;;2.70;1.80;;;24.50;99.90;;;;;;5132497;28;20193;-51
2022/06/26 10:55:48;;;;;;;4.75;1.65;;;24.70;99.90;;;;;;5132807;28;21154;-51
2022/06/26 10:58:30;;;;;;;3.35;1.58;;;24.60;99.90;;;;;;5132406;28;20704;-51
2022/06/26 11:01:00;;;;;;;3.97;1.60;;;24.30;99.90;;;;;;5132348;28;20199;-51
2022/06/26 11:03:27;;;;;;;3.53;1.80;;;24.20;99.90;;;;;;5132277;28;20156;-51
2022/06/26 11:06:20;;;;;;;2.33;1.75;;;23.90;99.90;;;;;;5132297;28;20278;-50
2022/06/26 11:08:51;;;;;;;2.58;1.70;;;23.80;99.90;;;;;;5127686;28;20198;-51
2022/06/26 11:11:22;;;;;;;2.65;2.05;;;23.70;99.90;;;;;;5131857;28;20167;-50
2022/06/26 11:13:57;;;;;;;2.35;1.70;;;23.40;99.90;;;;;;5132769;28;20168;-50
2022/06/26 11:16:43;;;;;;;2.60;1.80;;;23.50;99.90;;;;;;5131796;28;20186;-51
2022/06/26 11:19:28;;;;;;;2.22;1.67;;;23.50;99.90;;;;;;5114839;27;20179;-50
2022/06/26 11:22:17;;;;;;;3.65;1.75;;;23.20;99.90;;;;;;5135726;27;20259;-50
2022/06/26 11:24:58;;;;;;;2.15;1.58;;;23.10;99.90;;;;;;5135589;27;20160;-50
2022/06/26 11:27:29;;;;;;;3.08;1.90;;;23.10;99.90;;;;;;5135467;27;20171;-51
2022/06/26 11:29:55;;;;;;;2.17;1.48;;;23.00;99.90;;;;;;5116892;27;20221;-51
2022/06/26 11:32:28;;;;;;;2.40;1.52;;;23.00;99.90;;;;;;5135846;27;20156;-50
2022/06/26 11:34:58;;;;;;;4.60;2.10;;;23.20;99.90;;;;;;5118501;27;20168;-51
2022/06/26 11:37:38;;;;;;;4.00;1.73;;;23.10;99.90;;;;;;5135901;27;20164;-51
2022/06/26 11:40:17;;;;;;;3.53;1.80;;;23.10;99.90;;;;;;5116330;27;20615;-51
2022/06/26 11:42:43;;;;;;;3.85;1.60;;;22.90;99.90;;;;;;5135559;27;20275;-50
2022/06/26 11:45:26;;;;;;;3.13;2.08;;;22.90;99.90;;;;;;5135376;27;20364;-51
2022/06/26 11:47:52;;;;;;;2.58;1.55;;;22.90;99.90;;;;;;5135365;27;20160;-51
2022/06/26 11:50:23;;;;;;;5.38;2.25;;;22.80;99.90;;;;;;5135883;27;20175;-50
2022/06/26 11:52:56;;;;;;;3.17;1.83;;;22.70;99.90;;;;;;5135742;27;20156;-50
2022/06/26 11:55:27;;;;;;;4.95;3.03;;;22.60;99.90;;;;;;5135037;27;20588;-50
2022/06/26 11:57:55;;;;;;;4.93;2.40;;;22.60;99.90;;;;;;5135186;27;20232;-50
2022/06/26 12:00:27;;;;;;;2.70;1.55;;;22.60;99.90;;;;;;5135021;27;20191;-50
2022/06/26 12:03:06;;;;;;;3.00;2.10;;;22.60;99.90;;;;;;5134613;27;20168;-50
2022/06/26 12:05:32;;;;;;;2.25;1.50;;;22.70;99.90;;;;;;5134951;27;20160;-50
2022/06/26 12:08:16;;;;;;;4.55;2.45;;;23.00;99.90;;;;;;5134801;27;20166;-50
2022/06/26 12:10:45;;;;;;;2.70;2.10;;;23.10;99.90;;;;;;5134475;27;20231;-50
2022/06/26 12:13:23;;;;;;;3.22;2.10;;;23.00;99.90;;;;;;5134990;27;20172;-50
2022/06/26 12:15:49;;;;;;;3.97;1.88;;;22.90;99.90;;;;;;5116813;27;20651;-50
2022/06/26 12:18:15;;;;;;;2.80;1.70;;;21.70;99.90;;;;;;5135064;27;20160;-50
2022/06/26 12:20:41;;;;;;;3.28;1.85;;;23.00;99.90;;;;;;5134594;27;20295;-51
2022/06/26 12:23:09;;;;;;;2.63;1.77;;;23.00;99.90;;;;;;5134524;27;20163;-50
2022/06/26 12:25:36;;;;;;;4.30;1.80;;;23.10;99.90;;;;;;5134908;27;20560;-51
2022/06/26 12:28:03;;;;;;;5.38;2.28;;;23.00;99.90;;;;;;5134468;27;20163;-50
2022/06/26 12:30:33;;;;;;;1.95;1.55;;;22.80;99.90;;;;;;5134248;27;20533;-50
2022/06/26 12:33:00;;;;;;;2.53;1.52;;;22.70;99.90;;;;;;5134673;27;20160;-50
2022/06/26 12:35:27;;;;;;;3.40;2.00;;;22.60;99.90;;;;;;5134708;27;20204;-50
2022/06/26 12:37:55;;;;;;;5.22;1.95;;;22.60;99.90;;;;;;5134225;27;20239;-50
2022/06/26 12:40:27;;;;;;;2.72;1.60;;;22.60;99.90;;;;;;5134303;27;20663;-51
2022/06/26 12:42:53;;;;;;;7.65;2.17;;;22.50;99.90;;;;;;5115843;27;20257;-50
2022/06/26 12:45:19;;;;;;;2.78;2.00;;;22.50;99.90;;;;;;5134613;27;20164;-50
2022/06/26 12:47:45;;;;;;;4.60;1.95;;;22.50;99.90;;;;;;5134248;27;20187;-50
2022/06/26 12:50:13;;;;;;;2.53;1.98;;;22.40;99.90;;;;;;5134141;27;20168;-50
2022/06/26 12:52:39;;;;;;;4.07;1.67;;;22.50;99.90;;;;;;5115395;27;20193;-50
2022/06/26 12:55:07;;;;;;;3.15;2.25;;;22.50;99.90;;;;;;5133961;27;20624;-52
2022/06/26 12:57:32;;;;;;;2.33;1.83;;;22.50;99.90;;;;;;5133901;27;20160;-51
2022/06/26 12:59:58;;;;;;;4.03;1.95;;;22.60;99.90;;;;;;5134090;27;20704;-51